aviador You're here:

KOLM Decoded Metar

OLYMPIA in WA, USA
Report Time2017-10-19 07:54:00
UTC Time2017-10-19 08:57:10
Flight Rules mvfr MVFR
Wind230° at 10 Gusting to 15 kt
W.Decomp.*RWY 17: 7.5 kt HW 6.6 kt RCW
RWY 26: 6.6 kt HW 7.5 kt LCW
W.Rank230° ranks 5
Current wind is above 230° avg. (6.6)
Visibility8047 m
Phenomena:Light Rain
Mist
Clouds:Overcast 060 Hf
Ceiling6,000 ft
Temp12°C (ISA -3)
Dew Point12°C (100% RH)
AAT9.0°C
QNH1004 hPa
Density Alt374 ft
Elevation190 ft
Report Wrong Elevation
Raw Report
KOLM 190754Z AUTO 23010G15KT 5SM -RA BR OVC060 12/12 A2965 RMK AO2
SLP041 P0011 T01220117 401560067=

Extra information for KOLM:More info

Metar Taf Metar & Taf Last 4 Metars F.Rules Stats Wind Profile Meteogram Temp Stats Airport Information Weather charts Add Link Nearby VenuesMetar ALERT Operation Metar Decoded Social comments

AIRNAV info for KOLM